sensor_id;sensor_type;location;lat;lon;timestamp;P1;durP1;ratioP1;P2;durP2;ratioP2
64452;SDS011;50813;52.654;6.766;2023-05-07T00:00:58;11.1;;;9.9;;
64452;SDS011;50813;52.654;6.766;2023-05-07T00:02:34;38.4;;;10.4;;
64452;SDS011;50813;52.654;6.766;2023-05-07T00:05:47;12.4;;;10.3;;
64452;SDS011;50813;52.654;6.766;2023-05-07T00:07:23;61.8;;;14.5;;
64452;SDS011;50813;52.654;6.766;2023-05-07T00:08:59;65.41;;;15.5;;
64452;SDS011;50813;52.654;6.766;2023-05-07T00:10:35;16.2;;;11.5;;
64452;SDS011;50813;52.654;6.766;2023-05-07T00:13:47;12.5;;;10.4;;
64452;SDS011;50813;52.654;6.766;2023-05-07T00:15:25;14.3;;;11.0;;
64452;SDS011;50813;52.654;6.766;2023-05-07T00:17:02;14.3;;;11.0;;
64452;SDS011;50813;52.654;6.766;2023-05-07T00:20:15;57.3;;;13.8;;
64452;SDS011;50813;52.654;6.766;2023-05-07T00:21:51;11.1;;;9.9;;
64452;SDS011;50813;52.654;6.766;2023-05-07T00:23:27;17.11;;;11.6;;
64452;SDS011;50813;52.654;6.766;2023-05-07T00:26:41;68.1;;;15.2;;
64452;SDS011;50813;52.654;6.766;2023-05-07T00:28:18;42.4;;;12.1;;
64452;SDS011;50813;52.654;6.766;2023-05-07T00:29:55;12.8;;;11.5;;
64452;SDS011;50813;52.654;6.766;2023-05-07T00:31:32;12.7;;;11.4;;
64452;SDS011;50813;52.654;6.766;2023-05-07T00:34:44;17.2;;;11.8;;
64452;SDS011;50813;52.654;6.766;2023-05-07T00:36:21;90.7;;;14.8;;
64452;SDS011;50813;52.654;6.766;2023-05-07T00:37:57;23.6;;;13.3;;
64452;SDS011;50813;52.654;6.766;2023-05-07T00:41:11;13.4;;;11.1;;
64452;SDS011;50813;52.654;6.766;2023-05-07T00:42:48;50.8;;;13.0;;
64452;SDS011;50813;52.654;6.766;2023-05-07T00:44:24;20.9;;;12.7;;
64452;SDS011;50813;52.654;6.766;2023-05-07T00:47:37;71.91;;;15.2;;
64452;SDS011;50813;52.654;6.766;2023-05-07T00:49:14;12.1;;;10.7;;
64452;SDS011;50813;52.654;6.766;2023-05-07T00:50:51;37.0;;;11.7;;
64452;SDS011;50813;52.654;6.766;2023-05-07T00:52:29;32.9;;;13.0;;
64452;SDS011;50813;52.654;6.766;2023-05-07T00:55:43;94.3;;;18.2;;
64452;SDS011;50813;52.654;6.766;2023-05-07T00:57:19;24.7;;;14.5;;
64452;SDS011;50813;52.654;6.766;2023-05-07T00:58:57;15.2;;;12.5;;
64452;SDS011;50813;52.654;6.766;2023-05-07T01:02:10;15.2;;;12.4;;
64452;SDS011;50813;52.654;6.766;2023-05-07T01:03:46;63.1;;;18.5;;
64452;SDS011;50813;52.654;6.766;2023-05-07T01:05:23;16.8;;;14.1;;
64452;SDS011;50813;52.654;6.766;2023-05-07T01:07:02;17.61;;;14.0;;
64452;SDS011;50813;52.654;6.766;2023-05-07T01:10:17;28.8;;;15.4;;
64452;SDS011;50813;52.654;6.766;2023-05-07T01:11:54;313.3;;;37.4;;
64452;SDS011;50813;52.654;6.766;2023-05-07T01:13:32;38.6;;;20.3;;
64452;SDS011;50813;52.654;6.766;2023-05-07T01:16:48;18.91;;;16.11;;
64452;SDS011;50813;52.654;6.766;2023-05-07T01:18:25;22.6;;;15.7;;
64452;SDS011;50813;52.654;6.766;2023-05-07T01:20:02;56.5;;;20.6;;
64452;SDS011;50813;52.654;6.766;2023-05-07T01:21:40;26.5;;;16.5;;
64452;SDS011;50813;52.654;6.766;2023-05-07T01:25:00;17.5;;;15.7;;
64452;SDS011;50813;52.654;6.766;2023-05-07T01:26:36;19.5;;;16.5;;
64452;SDS011;50813;52.654;6.766;2023-05-07T01:28:13;21.3;;;16.11;;
64452;SDS011;50813;52.654;6.766;2023-05-07T01:31:26;44.2;;;20.9;;
64452;SDS011;50813;52.654;6.766;2023-05-07T01:33:04;101.8;;;23.9;;
64452;SDS011;50813;52.654;6.766;2023-05-07T01:34:44;75.8;;;19.2;;
64452;SDS011;50813;52.654;6.766;2023-05-07T01:36:24;232.7;;;27.9;;
64452;SDS011;50813;52.654;6.766;2023-05-07T01:39:39;34.4;;;18.2;;
64452;SDS011;50813;52.654;6.766;2023-05-07T01:41:17;235.3;;;31.9;;
64452;SDS011;50813;52.654;6.766;2023-05-07T01:42:54;51.2;;;19.11;;
64452;SDS011;50813;52.654;6.766;2023-05-07T01:46:06;22.3;;;18.61;;
64452;SDS011;50813;52.654;6.766;2023-05-07T01:47:44;168.8;;;27.3;;
64452;SDS011;50813;52.654;6.766;2023-05-07T01:49:20;59.3;;;20.8;;
64452;SDS011;50813;52.654;6.766;2023-05-07T01:52:34;82.4;;;21.5;;
64452;SDS011;50813;52.654;6.766;2023-05-07T01:54:12;85.6;;;22.2;;
64452;SDS011;50813;52.654;6.766;2023-05-07T01:55:48;20.0;;;17.91;;
64452;SDS011;50813;52.654;6.766;2023-05-07T01:57:24;204.5;;;29.4;;
64452;SDS011;50813;52.654;6.766;2023-05-07T02:00:36;305.2;;;42.4;;
64452;SDS011;50813;52.654;6.766;2023-05-07T02:02:13;101.6;;;22.6;;
64452;SDS011;50813;52.654;6.766;2023-05-07T02:03:50;87.0;;;22.9;;
64452;SDS011;50813;52.654;6.766;2023-05-07T02:07:02;214.1;;;32.8;;
64452;SDS011;50813;52.654;6.766;2023-05-07T02:08:38;104.4;;;24.7;;
64452;SDS011;50813;52.654;6.766;2023-05-07T02:10:14;122.2;;;26.2;;
64452;SDS011;50813;52.654;6.766;2023-05-07T02:13:28;70.61;;;26.9;;
64452;SDS011;50813;52.654;6.766;2023-05-07T02:15:06;186.1;;;29.2;;
64452;SDS011;50813;52.654;6.766;2023-05-07T02:16:42;264.61;;;36.5;;
64452;SDS011;50813;52.654;6.766;2023-05-07T02:18:19;102.1;;;32.1;;
64452;SDS011;50813;52.654;6.766;2023-05-07T02:21:31;39.6;;;24.5;;
64452;SDS011;50813;52.654;6.766;2023-05-07T02:23:07;148.5;;;28.4;;
64452;SDS011;50813;52.654;6.766;2023-05-07T02:24:44;540.71;;;51.8;;
64452;SDS011;50813;52.654;6.766;2023-05-07T02:27:56;25.5;;;21.0;;
64452;SDS011;50813;52.654;6.766;2023-05-07T02:29:33;24.7;;;21.0;;
64452;SDS011;50813;52.654;6.766;2023-05-07T02:31:09;75.2;;;29.4;;
64452;SDS011;50813;52.654;6.766;2023-05-07T02:34:21;27.4;;;21.3;;
64452;SDS011;50813;52.654;6.766;2023-05-07T02:36:04;102.6;;;24.8;;
64452;SDS011;50813;52.654;6.766;2023-05-07T02:37:41;34.0;;;23.0;;
64452;SDS011;50813;52.654;6.766;2023-05-07T02:39:17;27.1;;;21.8;;
64452;SDS011;50813;52.654;6.766;2023-05-07T02:42:31;245.8;;;38.4;;
64452;SDS011;50813;52.654;6.766;2023-05-07T02:44:07;53.2;;;25.5;;
64452;SDS011;50813;52.654;6.766;2023-05-07T02:45:44;280.8;;;34.71;;
64452;SDS011;50813;52.654;6.766;2023-05-07T02:48:56;45.4;;;22.8;;
64452;SDS011;50813;52.654;6.766;2023-05-07T02:50:32;30.2;;;23.9;;
64452;SDS011;50813;52.654;6.766;2023-05-07T02:52:09;117.8;;;29.6;;
64452;SDS011;50813;52.654;6.766;2023-05-07T02:53:45;45.1;;;24.3;;
64452;SDS011;50813;52.654;6.766;2023-05-07T02:56:57;60.8;;;28.6;;
64452;SDS011;50813;52.654;6.766;2023-05-07T02:58:33;78.3;;;29.9;;
64452;SDS011;50813;52.654;6.766;2023-05-07T03:00:10;33.8;;;25.6;;
64452;SDS011;50813;52.654;6.766;2023-05-07T03:03:24;29.7;;;24.5;;
64452;SDS011;50813;52.654;6.766;2023-05-07T03:05:00;28.3;;;24.0;;
64452;SDS011;50813;52.654;6.766;2023-05-07T03:06:36;105.5;;;30.8;;
64452;SDS011;50813;52.654;6.766;2023-05-07T03:09:48;29.8;;;23.7;;
64452;SDS011;50813;52.654;6.766;2023-05-07T03:11:25;31.8;;;25.1;;
64452;SDS011;50813;52.654;6.766;2023-05-07T03:13:01;99.4;;;29.6;;
64452;SDS011;50813;52.654;6.766;2023-05-07T03:14:38;37.5;;;26.3;;
64452;SDS011;50813;52.654;6.766;2023-05-07T03:17:51;65.6;;;29.7;;
64452;SDS011;50813;52.654;6.766;2023-05-07T03:19:27;78.61;;;28.8;;
64452;SDS011;50813;52.654;6.766;2023-05-07T03:21:03;31.0;;;26.1;;
64452;SDS011;50813;52.654;6.766;2023-05-07T03:24:17;117.4;;;32.3;;
64452;SDS011;50813;52.654;6.766;2023-05-07T03:25:53;41.0;;;28.8;;
64452;SDS011;50813;52.654;6.766;2023-05-07T03:27:29;35.31;;;27.8;;
64452;SDS011;50813;52.654;6.766;2023-05-07T03:30:41;124.5;;;38.0;;
64452;SDS011;50813;52.654;6.766;2023-05-07T03:32:17;63.4;;;30.9;;
64452;SDS011;50813;52.654;6.766;2023-05-07T03:33:54;36.1;;;28.5;;
64452;SDS011;50813;52.654;6.766;2023-05-07T03:37:09;70.41;;;31.9;;
64452;SDS011;50813;52.654;6.766;2023-05-07T03:38:45;35.81;;;29.2;;
64452;SDS011;50813;52.654;6.766;2023-05-07T03:40:21;73.61;;;32.3;;
64452;SDS011;50813;52.654;6.766;2023-05-07T03:41:57;42.8;;;30.4;;
64452;SDS011;50813;52.654;6.766;2023-05-07T03:45:11;59.2;;;34.81;;
64452;SDS011;50813;52.654;6.766;2023-05-07T03:46:47;55.1;;;35.31;;
64452;SDS011;50813;52.654;6.766;2023-05-07T03:48:23;38.0;;;30.3;;
64452;SDS011;50813;52.654;6.766;2023-05-07T03:51:35;43.2;;;31.9;;
64452;SDS011;50813;52.654;6.766;2023-05-07T03:53:12;36.71;;;29.0;;
64452;SDS011;50813;52.654;6.766;2023-05-07T03:54:48;113.8;;;40.0;;
64452;SDS011;50813;52.654;6.766;2023-05-07T03:58:01;102.7;;;39.81;;
64452;SDS011;50813;52.654;6.766;2023-05-07T03:59:37;124.0;;;35.81;;
64452;SDS011;50813;52.654;6.766;2023-05-07T04:01:13;142.6;;;41.8;;
64452;SDS011;50813;52.654;6.766;2023-05-07T04:02:49;37.1;;;31.0;;
64452;SDS011;50813;52.654;6.766;2023-05-07T04:06:01;149.6;;;39.0;;
64452;SDS011;50813;52.654;6.766;2023-05-07T04:07:38;126.4;;;37.81;;
64452;SDS011;50813;52.654;6.766;2023-05-07T04:09:15;70.8;;;33.5;;
64452;SDS011;50813;52.654;6.766;2023-05-07T04:12:31;38.21;;;31.2;;
64452;SDS011;50813;52.654;6.766;2023-05-07T04:14:07;118.6;;;35.31;;
64452;SDS011;50813;52.654;6.766;2023-05-07T04:15:43;35.9;;;29.7;;
64452;SDS011;50813;52.654;6.766;2023-05-07T04:18:55;43.2;;;31.3;;
64452;SDS011;50813;52.654;6.766;2023-05-07T04:20:33;37.4;;;32.8;;
64452;SDS011;50813;52.654;6.766;2023-05-07T04:22:11;40.4;;;29.7;;
64452;SDS011;50813;52.654;6.766;2023-05-07T04:23:48;72.8;;;32.0;;
64452;SDS011;50813;52.654;6.766;2023-05-07T04:27:01;33.6;;;28.5;;
64452;SDS011;50813;52.654;6.766;2023-05-07T04:28:37;36.1;;;29.9;;
64452;SDS011;50813;52.654;6.766;2023-05-07T04:30:14;36.81;;;28.7;;
64452;SDS011;50813;52.654;6.766;2023-05-07T04:33:27;71.5;;;34.71;;
64452;SDS011;50813;52.654;6.766;2023-05-07T04:35:03;36.1;;;28.7;;
64452;SDS011;50813;52.654;6.766;2023-05-07T04:36:40;131.9;;;42.6;;
64452;SDS011;50813;52.654;6.766;2023-05-07T04:39:53;59.0;;;29.8;;
64452;SDS011;50813;52.654;6.766;2023-05-07T04:41:29;55.8;;;30.0;;
64452;SDS011;50813;52.654;6.766;2023-05-07T04:43:05;98.8;;;33.4;;
64452;SDS011;50813;52.654;6.766;2023-05-07T04:44:42;63.7;;;29.3;;
64452;SDS011;50813;52.654;6.766;2023-05-07T04:47:56;32.6;;;27.4;;
64452;SDS011;50813;52.654;6.766;2023-05-07T04:49:32;37.21;;;29.3;;
64452;SDS011;50813;52.654;6.766;2023-05-07T04:51:08;39.81;;;29.2;;
64452;SDS011;50813;52.654;6.766;2023-05-07T04:54:20;58.5;;;28.9;;
64452;SDS011;50813;52.654;6.766;2023-05-07T04:55:56;176.4;;;34.4;;
64452;SDS011;50813;52.654;6.766;2023-05-07T04:57:33;31.6;;;25.6;;
64452;SDS011;50813;52.654;6.766;2023-05-07T05:00:46;39.71;;;27.4;;
64452;SDS011;50813;52.654;6.766;2023-05-07T05:02:22;31.4;;;26.7;;
64452;SDS011;50813;52.654;6.766;2023-05-07T05:03:58;184.5;;;37.6;;
64452;SDS011;50813;52.654;6.766;2023-05-07T05:05:34;42.6;;;28.6;;
64452;SDS011;50813;52.654;6.766;2023-05-07T05:08:47;31.9;;;26.2;;
64452;SDS011;50813;52.654;6.766;2023-05-07T05:10:23;35.81;;;26.2;;
64452;SDS011;50813;52.654;6.766;2023-05-07T05:11:59;212.0;;;36.71;;
64452;SDS011;50813;52.654;6.766;2023-05-07T05:15:11;30.4;;;25.1;;
64452;SDS011;50813;52.654;6.766;2023-05-07T05:16:48;45.4;;;28.0;;
64452;SDS011;50813;52.654;6.766;2023-05-07T05:18:25;200.9;;;32.1;;
64452;SDS011;50813;52.654;6.766;2023-05-07T05:21:37;202.4;;;31.6;;
64452;SDS011;50813;52.654;6.766;2023-05-07T05:23:13;93.8;;;30.4;;
64452;SDS011;50813;52.654;6.766;2023-05-07T05:24:49;30.7;;;25.4;;
64452;SDS011;50813;52.654;6.766;2023-05-07T05:26:25;28.3;;;24.1;;
64452;SDS011;50813;52.654;6.766;2023-05-07T05:29:37;33.4;;;26.1;;
64452;SDS011;50813;52.654;6.766;2023-05-07T05:31:13;61.7;;;26.4;;
64452;SDS011;50813;52.654;6.766;2023-05-07T05:32:50;29.2;;;25.0;;
64452;SDS011;50813;52.654;6.766;2023-05-07T05:36:02;29.7;;;24.7;;
64452;SDS011;50813;52.654;6.766;2023-05-07T05:37:39;398.4;;;49.9;;
64452;SDS011;50813;52.654;6.766;2023-05-07T05:39:17;95.9;;;30.2;;
64452;SDS011;50813;52.654;6.766;2023-05-07T05:42:29;69.3;;;25.9;;
64452;SDS011;50813;52.654;6.766;2023-05-07T05:44:06;99.1;;;29.2;;
64452;SDS011;50813;52.654;6.766;2023-05-07T05:45:42;28.2;;;24.0;;
64452;SDS011;50813;52.654;6.766;2023-05-07T05:48:54;53.8;;;26.4;;
64452;SDS011;50813;52.654;6.766;2023-05-07T05:50:30;48.9;;;26.8;;
64452;SDS011;50813;52.654;6.766;2023-05-07T05:52:06;65.5;;;28.7;;
64452;SDS011;50813;52.654;6.766;2023-05-07T05:53:43;56.7;;;28.0;;
64452;SDS011;50813;52.654;6.766;2023-05-07T05:56:56;51.6;;;30.1;;
64452;SDS011;50813;52.654;6.766;2023-05-07T05:58:33;149.0;;;34.4;;
64452;SDS011;50813;52.654;6.766;2023-05-07T06:00:10;97.9;;;31.3;;
64452;SDS011;50813;52.654;6.766;2023-05-07T06:03:22;68.91;;;27.8;;
64452;SDS011;50813;52.654;6.766;2023-05-07T06:04:59;69.5;;;29.9;;
64452;SDS011;50813;52.654;6.766;2023-05-07T06:06:35;204.2;;;39.6;;
64452;SDS011;50813;52.654;6.766;2023-05-07T06:09:47;34.21;;;27.1;;
64452;SDS011;50813;52.654;6.766;2023-05-07T06:11:23;52.2;;;28.5;;
64452;SDS011;50813;52.654;6.766;2023-05-07T06:12:59;69.41;;;30.5;;
64452;SDS011;50813;52.654;6.766;2023-05-07T06:14:36;30.2;;;26.9;;
64452;SDS011;50813;52.654;6.766;2023-05-07T06:17:49;187.5;;;42.5;;
64452;SDS011;50813;52.654;6.766;2023-05-07T06:19:25;337.3;;;46.8;;
64452;SDS011;50813;52.654;6.766;2023-05-07T06:21:01;33.1;;;27.9;;
64452;SDS011;50813;52.654;6.766;2023-05-07T06:24:14;34.1;;;28.0;;
64452;SDS011;50813;52.654;6.766;2023-05-07T06:25:51;53.8;;;28.6;;
64452;SDS011;50813;52.654;6.766;2023-05-07T06:27:28;34.31;;;27.8;;
64452;SDS011;50813;52.654;6.766;2023-05-07T06:30:40;51.5;;;31.0;;
64452;SDS011;50813;52.654;6.766;2023-05-07T06:32:16;44.0;;;29.6;;
64452;SDS011;50813;52.654;6.766;2023-05-07T06:33:55;60.9;;;27.8;;
64452;SDS011;50813;52.654;6.766;2023-05-07T06:35:31;67.8;;;30.3;;
64452;SDS011;50813;52.654;6.766;2023-05-07T06:38:43;113.1;;;34.6;;
64452;SDS011;50813;52.654;6.766;2023-05-07T06:40:19;46.7;;;28.6;;
64452;SDS011;50813;52.654;6.766;2023-05-07T06:41:55;63.1;;;29.1;;
64452;SDS011;50813;52.654;6.766;2023-05-07T06:45:09;37.5;;;28.5;;
64452;SDS011;50813;52.654;6.766;2023-05-07T06:46:46;146.0;;;35.21;;
64452;SDS011;50813;52.654;6.766;2023-05-07T06:48:22;82.3;;;31.5;;
64452;SDS011;50813;52.654;6.766;2023-05-07T06:51:34;33.9;;;27.3;;
64452;SDS011;50813;52.654;6.766;2023-05-07T06:53:10;33.6;;;27.9;;
64452;SDS011;50813;52.654;6.766;2023-05-07T06:54:46;63.3;;;28.9;;
64452;SDS011;50813;52.654;6.766;2023-05-07T06:56:23;67.8;;;29.1;;
64452;SDS011;50813;52.654;6.766;2023-05-07T06:59:36;32.5;;;27.4;;
64452;SDS011;50813;52.654;6.766;2023-05-07T07:01:12;32.5;;;27.4;;
64452;SDS011;50813;52.654;6.766;2023-05-07T07:02:48;36.71;;;29.9;;
64452;SDS011;50813;52.654;6.766;2023-05-07T07:06:00;33.6;;;27.9;;
64452;SDS011;50813;52.654;6.766;2023-05-07T07:07:37;87.7;;;31.2;;
64452;SDS011;50813;52.654;6.766;2023-05-07T07:09:13;33.1;;;28.3;;
64452;SDS011;50813;52.654;6.766;2023-05-07T07:12:25;40.6;;;29.7;;
64452;SDS011;50813;52.654;6.766;2023-05-07T07:14:01;133.31;;;39.21;;
64452;SDS011;50813;52.654;6.766;2023-05-07T07:15:38;84.3;;;31.7;;
64452;SDS011;50813;52.654;6.766;2023-05-07T07:18:50;69.5;;;28.9;;
64452;SDS011;50813;52.654;6.766;2023-05-07T07:20:27;42.1;;;28.1;;
64452;SDS011;50813;52.654;6.766;2023-05-07T07:22:03;33.5;;;27.3;;
64452;SDS011;50813;52.654;6.766;2023-05-07T07:23:39;228.5;;;38.6;;
64452;SDS011;50813;52.654;6.766;2023-05-07T07:26:53;33.3;;;27.8;;
64452;SDS011;50813;52.654;6.766;2023-05-07T07:28:29;35.21;;;28.4;;
64452;SDS011;50813;52.654;6.766;2023-05-07T07:30:06;74.3;;;30.5;;
64452;SDS011;50813;52.654;6.766;2023-05-07T07:33:19;33.8;;;29.1;;
64452;SDS011;50813;52.654;6.766;2023-05-07T07:34:55;53.0;;;30.4;;
64452;SDS011;50813;52.654;6.766;2023-05-07T07:36:31;40.81;;;30.5;;
64452;SDS011;50813;52.654;6.766;2023-05-07T07:39:44;45.2;;;30.7;;
64452;SDS011;50813;52.654;6.766;2023-05-07T07:41:20;67.0;;;30.2;;
64452;SDS011;50813;52.654;6.766;2023-05-07T07:42:56;92.2;;;37.5;;
64452;SDS011;50813;52.654;6.766;2023-05-07T07:44:33;147.81;;;36.9;;
64452;SDS011;50813;52.654;6.766;2023-05-07T07:47:48;79.11;;;29.6;;
64452;SDS011;50813;52.654;6.766;2023-05-07T07:49:24;35.9;;;28.4;;
64452;SDS011;50813;52.654;6.766;2023-05-07T07:51:00;73.7;;;31.6;;
64452;SDS011;50813;52.654;6.766;2023-05-07T07:54:14;190.4;;;41.1;;
64452;SDS011;50813;52.654;6.766;2023-05-07T07:55:50;59.3;;;30.4;;
64452;SDS011;50813;52.654;6.766;2023-05-07T07:57:26;137.5;;;38.81;;
64452;SDS011;50813;52.654;6.766;2023-05-07T08:00:39;117.3;;;31.2;;
64452;SDS011;50813;52.654;6.766;2023-05-07T08:02:15;39.31;;;29.7;;
64452;SDS011;50813;52.654;6.766;2023-05-07T08:03:53;38.81;;;29.9;;
64452;SDS011;50813;52.654;6.766;2023-05-07T08:05:29;60.9;;;30.6;;
64452;SDS011;50813;52.654;6.766;2023-05-07T08:08:42;155.9;;;33.3;;
64452;SDS011;50813;52.654;6.766;2023-05-07T08:10:19;55.8;;;28.7;;
64452;SDS011;50813;52.654;6.766;2023-05-07T08:11:56;172.1;;;36.0;;
64452;SDS011;50813;52.654;6.766;2023-05-07T08:15:11;104.8;;;34.71;;
64452;SDS011;50813;52.654;6.766;2023-05-07T08:16:47;94.0;;;32.5;;
64452;SDS011;50813;52.654;6.766;2023-05-07T08:18:23;169.4;;;34.1;;
64452;SDS011;50813;52.654;6.766;2023-05-07T08:21:39;96.4;;;31.0;;
64452;SDS011;50813;52.654;6.766;2023-05-07T08:23:15;35.1;;;27.4;;
64452;SDS011;50813;52.654;6.766;2023-05-07T08:24:51;70.2;;;31.9;;
64452;SDS011;50813;52.654;6.766;2023-05-07T08:26:28;59.7;;;28.4;;
64452;SDS011;50813;52.654;6.766;2023-05-07T08:29:41;60.8;;;30.6;;
64452;SDS011;50813;52.654;6.766;2023-05-07T08:31:17;38.31;;;27.8;;
64452;SDS011;50813;52.654;6.766;2023-05-07T08:32:53;35.71;;;28.8;;
64452;SDS011;50813;52.654;6.766;2023-05-07T08:36:06;143.81;;;32.5;;
64452;SDS011;50813;52.654;6.766;2023-05-07T08:37:42;175.4;;;33.5;;
64452;SDS011;50813;52.654;6.766;2023-05-07T08:39:19;107.4;;;32.1;;
64452;SDS011;50813;52.654;6.766;2023-05-07T08:42:33;269.8;;;46.0;;
64452;SDS011;50813;52.654;6.766;2023-05-07T08:44:12;32.71;;;26.4;;
64452;SDS011;50813;52.654;6.766;2023-05-07T08:45:50;69.3;;;28.1;;
64452;SDS011;50813;52.654;6.766;2023-05-07T08:47:32;155.5;;;32.0;;
64452;SDS011;50813;52.654;6.766;2023-05-07T08:50:52;205.5;;;35.9;;
64452;SDS011;50813;52.654;6.766;2023-05-07T08:52:29;335.7;;;50.3;;
64452;SDS011;50813;52.654;6.766;2023-05-07T08:54:05;29.0;;;25.2;;
64452;SDS011;50813;52.654;6.766;2023-05-07T08:55:44;29.8;;;25.1;;
64452;SDS011;50813;52.654;6.766;2023-05-07T08:58:58;73.11;;;27.4;;
64452;SDS011;50813;52.654;6.766;2023-05-07T09:00:35;33.6;;;26.1;;
64452;SDS011;50813;52.654;6.766;2023-05-07T09:02:13;98.4;;;31.0;;
64452;SDS011;50813;52.654;6.766;2023-05-07T09:05:28;240.4;;;38.0;;
64452;SDS011;50813;52.654;6.766;2023-05-07T09:07:04;59.3;;;26.2;;
64452;SDS011;50813;52.654;6.766;2023-05-07T09:08:41;62.1;;;29.8;;
64452;SDS011;50813;52.654;6.766;2023-05-07T09:10:25;63.2;;;28.0;;
64452;SDS011;50813;52.654;6.766;2023-05-07T09:13:39;32.1;;;25.5;;
64452;SDS011;50813;52.654;6.766;2023-05-07T09:15:15;28.0;;;23.7;;
64452;SDS011;50813;52.654;6.766;2023-05-07T09:16:51;44.9;;;26.4;;
64452;SDS011;50813;52.654;6.766;2023-05-07T09:20:05;31.9;;;26.2;;
64452;SDS011;50813;52.654;6.766;2023-05-07T09:21:43;28.2;;;23.8;;
64452;SDS011;50813;52.654;6.766;2023-05-07T09:23:20;40.81;;;26.5;;
64452;SDS011;50813;52.654;6.766;2023-05-07T09:24:57;59.7;;;25.1;;
64452;SDS011;50813;52.654;6.766;2023-05-07T09:28:10;100.3;;;27.1;;
64452;SDS011;50813;52.654;6.766;2023-05-07T09:29:46;100.3;;;27.1;;
64452;SDS011;50813;52.654;6.766;2023-05-07T09:31:23;28.2;;;23.4;;
64452;SDS011;50813;52.654;6.766;2023-05-07T09:34:40;150.9;;;33.9;;
64452;SDS011;50813;52.654;6.766;2023-05-07T09:36:18;339.5;;;40.31;;
64452;SDS011;50813;52.654;6.766;2023-05-07T09:37:54;36.6;;;23.1;;
64452;SDS011;50813;52.654;6.766;2023-05-07T09:39:41;62.4;;;23.7;;
64452;SDS011;50813;52.654;6.766;2023-05-07T09:42:55;76.8;;;25.1;;
64452;SDS011;50813;52.654;6.766;2023-05-07T09:44:33;131.2;;;28.0;;
64452;SDS011;50813;52.654;6.766;2023-05-07T09:46:11;23.6;;;20.7;;
64452;SDS011;50813;52.654;6.766;2023-05-07T09:49:33;24.5;;;20.9;;
64452;SDS011;50813;52.654;6.766;2023-05-07T09:51:15;142.1;;;32.1;;
64452;SDS011;50813;52.654;6.766;2023-05-07T09:53:05;67.5;;;25.4;;
64452;SDS011;50813;52.654;6.766;2023-05-07T09:54:45;90.6;;;23.0;;
64452;SDS011;50813;52.654;6.766;2023-05-07T09:56:23;26.3;;;21.2;;
64452;SDS011;50813;52.654;6.766;2023-05-07T09:59:40;25.0;;;21.5;;
64452;SDS011;50813;52.654;6.766;2023-05-07T10:01:19;25.8;;;21.0;;
64452;SDS011;50813;52.654;6.766;2023-05-07T10:02:57;67.1;;;23.9;;
64452;SDS011;50813;52.654;6.766;2023-05-07T10:06:13;151.4;;;27.9;;
64452;SDS011;50813;52.654;6.766;2023-05-07T10:07:51;300.3;;;36.4;;
64452;SDS011;50813;52.654;6.766;2023-05-07T10:09:29;23.5;;;20.2;;
64452;SDS011;50813;52.654;6.766;2023-05-07T10:11:06;35.9;;;23.6;;
64452;SDS011;50813;52.654;6.766;2023-05-07T10:14:19;85.1;;;24.1;;
64452;SDS011;50813;52.654;6.766;2023-05-07T10:15:57;114.6;;;29.8;;
64452;SDS011;50813;52.654;6.766;2023-05-07T10:17:35;35.71;;;22.7;;
64452;SDS011;50813;52.654;6.766;2023-05-07T10:20:49;29.2;;;21.8;;
64452;SDS011;50813;52.654;6.766;2023-05-07T10:22:28;48.2;;;20.0;;
64452;SDS011;50813;52.654;6.766;2023-05-07T10:24:13;85.6;;;23.6;;
64452;SDS011;50813;52.654;6.766;2023-05-07T10:25:55;23.9;;;20.41;;
64452;SDS011;50813;52.654;6.766;2023-05-07T10:29:12;27.4;;;20.2;;
64452;SDS011;50813;52.654;6.766;2023-05-07T10:31:04;161.9;;;24.3;;
64452;SDS011;50813;52.654;6.766;2023-05-07T10:33:01;25.5;;;21.7;;
64452;SDS011;50813;52.654;6.766;2023-05-07T10:34:42;57.7;;;23.0;;
64452;SDS011;50813;52.654;6.766;2023-05-07T10:36:21;65.41;;;21.8;;
64452;SDS011;50813;52.654;6.766;2023-05-07T10:39:35;85.6;;;23.6;;
64452;SDS011;50813;52.654;6.766;2023-05-07T10:41:12;21.0;;;18.7;;
64452;SDS011;50813;52.654;6.766;2023-05-07T10:42:53;22.0;;;19.11;;
64452;SDS011;50813;52.654;6.766;2023-05-07T10:44:31;22.2;;;19.41;;
64452;SDS011;50813;52.654;6.766;2023-05-07T10:48:06;21.4;;;19.2;;
64452;SDS011;50813;52.654;6.766;2023-05-07T10:50:51;44.4;;;21.8;;
64452;SDS011;50813;52.654;6.766;2023-05-07T10:53:27;129.6;;;24.5;;
64452;SDS011;50813;52.654;6.766;2023-05-07T10:55:19;78.5;;;23.4;;
64452;SDS011;50813;52.654;6.766;2023-05-07T10:57:44;21.4;;;19.0;;
64452;SDS011;50813;52.654;6.766;2023-05-07T10:59:29;43.3;;;20.11;;
64452;SDS011;50813;52.654;6.766;2023-05-07T11:01:11;120.8;;;28.0;;
64452;SDS011;50813;52.654;6.766;2023-05-07T11:05:18;30.9;;;21.0;;
64452;SDS011;50813;52.654;6.766;2023-05-07T11:07:21;21.8;;;19.3;;
64452;SDS011;50813;52.654;6.766;2023-05-07T11:09:06;66.5;;;21.5;;
64452;SDS011;50813;52.654;6.766;2023-05-07T11:10:50;124.6;;;26.7;;
64452;SDS011;50813;52.654;6.766;2023-05-07T11:12:52;25.7;;;20.5;;
64452;SDS011;50813;52.654;6.766;2023-05-07T11:14:44;57.2;;;21.1;;
64452;SDS011;50813;52.654;6.766;2023-05-07T11:16:23;21.4;;;19.11;;
64452;SDS011;50813;52.654;6.766;2023-05-07T11:18:00;94.1;;;23.1;;
64452;SDS011;50813;52.654;6.766;2023-05-07T11:21:32;23.9;;;18.5;;
64452;SDS011;50813;52.654;6.766;2023-05-07T11:23:40;109.6;;;23.4;;
64452;SDS011;50813;52.654;6.766;2023-05-07T11:25:35;33.21;;;21.0;;
64452;SDS011;50813;52.654;6.766;2023-05-07T11:27:12;115.0;;;21.5;;
64452;SDS011;50813;52.654;6.766;2023-05-07T11:28:49;74.0;;;20.9;;
64452;SDS011;50813;52.654;6.766;2023-05-07T11:30:27;47.5;;;20.7;;
64452;SDS011;50813;52.654;6.766;2023-05-07T11:33:43;46.3;;;18.7;;
64452;SDS011;50813;52.654;6.766;2023-05-07T11:35:22;223.7;;;26.9;;
64452;SDS011;50813;52.654;6.766;2023-05-07T11:36:59;19.61;;;17.61;;
64452;SDS011;50813;52.654;6.766;2023-05-07T11:40:14;20.3;;;18.2;;
64452;SDS011;50813;52.654;6.766;2023-05-07T11:41:50;21.0;;;18.7;;
64452;SDS011;50813;52.654;6.766;2023-05-07T11:43:27;20.9;;;17.61;;
64452;SDS011;50813;52.654;6.766;2023-05-07T11:46:43;115.3;;;23.3;;
64452;SDS011;50813;52.654;6.766;2023-05-07T11:48:21;18.0;;;16.11;;
64452;SDS011;50813;52.654;6.766;2023-05-07T11:50:01;19.41;;;17.3;;
64452;SDS011;50813;52.654;6.766;2023-05-07T11:51:42;18.7;;;16.5;;
64452;SDS011;50813;52.654;6.766;2023-05-07T11:54:56;40.31;;;19.11;;
64452;SDS011;50813;52.654;6.766;2023-05-07T11:56:35;18.41;;;16.5;;
64452;SDS011;50813;52.654;6.766;2023-05-07T11:58:12;19.2;;;17.2;;
64452;SDS011;50813;52.654;6.766;2023-05-07T11:59:56;20.6;;;17.0;;
64452;SDS011;50813;52.654;6.766;2023-05-07T12:03:11;40.9;;;16.11;;
64452;SDS011;50813;52.654;6.766;2023-05-07T12:04:47;23.2;;;16.9;;
64452;SDS011;50813;52.654;6.766;2023-05-07T12:06:24;55.6;;;18.41;;
64452;SDS011;50813;52.654;6.766;2023-05-07T12:09:36;17.11;;;15.4;;
64452;SDS011;50813;52.654;6.766;2023-05-07T12:11:13;17.7;;;15.6;;
64452;SDS011;50813;52.654;6.766;2023-05-07T12:12:52;16.4;;;14.7;;
64452;SDS011;50813;52.654;6.766;2023-05-07T12:14:28;17.91;;;15.9;;
64452;SDS011;50813;52.654;6.766;2023-05-07T12:17:42;17.91;;;15.4;;
64452;SDS011;50813;52.654;6.766;2023-05-07T12:19:19;16.9;;;15.1;;
64452;SDS011;50813;52.654;6.766;2023-05-07T12:20:56;18.2;;;15.4;;
64452;SDS011;50813;52.654;6.766;2023-05-07T12:24:13;17.2;;;15.4;;
64452;SDS011;50813;52.654;6.766;2023-05-07T12:25:50;16.8;;;15.1;;
64452;SDS011;50813;52.654;6.766;2023-05-07T12:27:27;33.8;;;16.61;;
64452;SDS011;50813;52.654;6.766;2023-05-07T12:29:04;16.2;;;14.5;;
64452;SDS011;50813;52.654;6.766;2023-05-07T12:32:19;17.7;;;15.8;;
64452;SDS011;50813;52.654;6.766;2023-05-07T12:33:58;17.91;;;16.0;;